Time;durP1;ratioP1;P1;durP2;ratioP2;P2;SDS_P1;SDS_P2;PMS_P1;PMS_P2;Temp;Humidity;BMP_temperature;BMP_pressure;BME280_temperature;BME280_humidity;BME280_pressure;Samples;Min_cycle;Max_cycle;Signal;HPM_P1;HPM_P2
2023/05/02 00:00:20;;;;;;;7.53;4.90;;;12.00;95.30;;;;;;1902161;75;21435;-47
2023/05/02 00:02:49;;;;;;;5.65;5.10;;;12.00;95.30;;;;;;1902250;75;21149;-48
2023/05/02 00:05:19;;;;;;;6.70;5.28;;;12.10;95.30;;;;;;1902223;75;21052;-47
2023/05/02 00:07:48;;;;;;;8.00;6.12;;;12.10;95.20;;;;;;1902155;75;21249;-47
2023/05/02 00:10:17;;;;;;;11.97;7.00;;;12.10;95.20;;;;;;1902128;75;21331;-47
2023/05/02 00:12:46;;;;;;;8.88;6.33;;;12.10;95.20;;;;;;1902147;75;21267;-47
2023/05/02 00:15:15;;;;;;;7.58;5.53;;;12.10;95.20;;;;;;1914768;75;21253;-47
2023/05/02 00:17:45;;;;;;;8.55;5.97;;;12.10;95.20;;;;;;1914843;75;21614;-47
2023/05/02 00:20:14;;;;;;;7.03;5.58;;;12.10;95.20;;;;;;1914823;75;21274;-48
2023/05/02 00:22:43;;;;;;;5.28;4.75;;;12.00;95.20;;;;;;1914772;75;21244;-47
2023/05/02 00:25:15;;;;;;;6.92;5.28;;;12.00;95.10;;;;;;1914827;75;21194;-49
2023/05/02 00:27:45;;;;;;;6.22;5.20;;;12.00;95.00;;;;;;1914752;75;21284;-49
2023/05/02 00:30:15;;;;;;;7.15;5.28;;;12.00;95.00;;;;;;1914808;75;21277;-47
2023/05/02 00:32:44;;;;;;;6.35;5.17;;;11.90;95.00;;;;;;1914810;75;21586;-48
2023/05/02 00:35:13;;;;;;;4.97;4.45;;;11.90;95.00;;;;;;1914808;75;21113;-47
2023/05/02 00:37:42;;;;;;;5.72;4.42;;;11.80;95.00;;;;;;1914786;75;21262;-48
2023/05/02 00:40:12;;;;;;;5.28;4.08;;;11.80;95.10;;;;;;1914779;75;21263;-47
2023/05/02 00:42:41;;;;;;;5.25;4.03;;;11.70;95.10;;;;;;1914910;75;21230;-48
2023/05/02 00:45:11;;;;;;;5.22;4.20;;;11.70;95.20;;;;;;1914726;75;21152;-47
2023/05/02 00:47:40;;;;;;;6.50;5.00;;;11.70;95.20;;;;;;1914677;75;21257;-47
2023/05/02 00:50:10;;;;;;;6.75;5.12;;;11.70;95.10;;;;;;1914849;75;21197;-49
2023/05/02 00:52:39;;;;;;;6.87;5.35;;;11.70;95.20;;;;;;1914842;75;21072;-48
2023/05/02 00:55:09;;;;;;;7.40;5.67;;;11.70;95.20;;;;;;1914874;75;21184;-47
2023/05/02 00:57:38;;;;;;;6.72;5.00;;;11.70;95.20;;;;;;1914777;75;21354;-47
2023/05/02 01:00:09;;;;;;;6.33;5.37;;;11.60;95.10;;;;;;1914706;75;21323;-47
2023/05/02 01:02:50;;;;;;;6.17;5.30;;;11.60;95.20;;;;;;1914806;75;21242;-47
2023/05/02 01:05:21;;;;;;;6.17;4.92;;;11.60;95.20;;;;;;1914524;75;21318;-47
2023/05/02 01:08:08;;;;;;;8.08;4.87;;;11.60;95.20;;;;;;1914825;75;21319;-47
2023/05/02 01:10:46;;;;;;;6.30;5.10;;;11.60;95.20;;;;;;1914692;75;21796;-49
2023/05/02 01:13:24;;;;;;;6.67;5.12;;;11.60;95.20;;;;;;1914831;75;21237;-48
2023/05/02 01:15:56;;;;;;;9.00;4.62;;;11.60;95.10;;;;;;1914916;75;21291;-49
2023/05/02 01:18:27;;;;;;;5.58;4.70;;;11.60;95.00;;;;;;1914846;75;21108;-50
2023/05/02 01:21:01;;;;;;;5.95;4.70;;;11.60;95.00;;;;;;1914545;75;21272;-49
2023/05/02 01:23:43;;;;;;;7.12;4.83;;;11.60;95.00;;;;;;1914886;75;21755;-49
2023/05/02 01:26:33;;;;;;;6.17;4.95;;;11.60;95.00;;;;;;1914793;75;21076;-49
2023/05/02 01:29:04;;;;;;;8.40;4.53;;;11.70;95.10;;;;;;1859616;75;21244;-49
2023/05/02 01:31:44;;;;;;;5.40;4.22;;;11.70;95.00;;;;;;1914719;75;21188;-49
2023/05/02 01:34:14;;;;;;;5.90;3.33;;;11.70;95.00;;;;;;1914755;75;21225;-50
2023/05/02 01:36:45;;;;;;;7.10;3.00;;;11.70;94.90;;;;;;1914737;75;21241;-49
2023/05/02 01:39:19;;;;;;;5.17;4.12;;;11.60;94.90;;;;;;1914842;75;21165;-50
2023/05/02 01:41:54;;;;;;;4.30;3.90;;;11.60;94.90;;;;;;1914862;75;21305;-49
2023/05/02 01:44:24;;;;;;;6.62;4.80;;;11.60;95.00;;;;;;1914969;75;21159;-47
2023/05/02 01:46:55;;;;;;;6.97;4.20;;;11.60;95.00;;;;;;1914685;75;21197;-47
2023/05/02 01:49:25;;;;;;;8.33;5.60;;;11.60;95.00;;;;;;1914667;75;21193;-48
2023/05/02 01:51:55;;;;;;;5.15;4.30;;;11.60;95.00;;;;;;1914768;75;21105;-48
2023/05/02 01:54:26;;;;;;;7.53;5.10;;;11.60;95.00;;;;;;1914654;75;21312;-50
2023/05/02 01:56:56;;;;;;;5.00;4.50;;;11.50;95.00;;;;;;1914986;75;21193;-49
2023/05/02 01:59:27;;;;;;;7.42;4.80;;;11.50;95.00;;;;;;1914864;75;21132;-50
2023/05/02 02:01:57;;;;;;;5.80;5.03;;;11.50;95.00;;;;;;1914908;75;21653;-48
2023/05/02 02:04:28;;;;;;;6.20;5.00;;;11.50;95.20;;;;;;1914824;75;21189;-48
2023/05/02 02:06:59;;;;;;;7.35;5.12;;;11.50;95.10;;;;;;1914896;75;21310;-48
2023/05/02 02:09:29;;;;;;;5.65;4.83;;;11.40;95.10;;;;;;1913624;75;21394;-50
2023/05/02 02:12:03;;;;;;;5.85;4.70;;;11.40;95.20;;;;;;1914856;75;21346;-52
2023/05/02 02:14:38;;;;;;;5.90;4.65;;;11.30;95.20;;;;;;1914773;75;21431;-49
2023/05/02 02:17:10;;;;;;;11.28;5.80;;;11.30;95.20;;;;;;1914486;75;21201;-49
2023/05/02 02:19:41;;;;;;;7.12;5.55;;;11.40;95.40;;;;;;1914930;75;22442;-50
2023/05/02 02:22:13;;;;;;;8.75;6.50;;;11.30;95.20;;;;;;1915065;75;21302;-50
2023/05/02 02:24:44;;;;;;;5.83;5.22;;;11.30;95.20;;;;;;1914989;75;21312;-50
2023/05/02 02:27:14;;;;;;;6.60;5.22;;;11.40;95.40;;;;;;1915017;75;21269;-50
2023/05/02 02:29:43;;;;;;;5.95;4.42;;;11.30;95.30;;;;;;1914711;75;21258;-50
2023/05/02 02:32:14;;;;;;;6.53;5.03;;;11.30;95.20;;;;;;1914875;75;21744;-50
2023/05/02 02:34:43;;;;;;;6.10;4.53;;;11.30;95.30;;;;;;1914951;75;21265;-49
2023/05/02 02:37:18;;;;;;;6.47;4.47;;;11.30;95.30;;;;;;1914892;75;21228;-48
2023/05/02 02:39:57;;;;;;;5.12;4.55;;;11.40;95.20;;;;;;1914852;75;21389;-49
2023/05/02 02:42:34;;;;;;;6.08;5.20;;;11.40;95.20;;;;;;1913898;75;21184;-51
2023/05/02 02:45:23;;;;;;;5.97;4.70;;;11.40;95.20;;;;;;1914307;75;21116;-50
2023/05/02 02:48:07;;;;;;;6.85;4.50;;;11.40;95.20;;;;;;1914415;75;21320;-49
2023/05/02 02:50:45;;;;;;;7.30;4.78;;;11.40;95.20;;;;;;1914842;75;21324;-49
2023/05/02 02:53:20;;;;;;;6.05;5.20;;;11.40;95.10;;;;;;1912991;75;21283;-49
2023/05/02 02:55:54;;;;;;;7.60;5.58;;;11.40;95.10;;;;;;1913738;75;21309;-49
2023/05/02 02:58:52;;;;;;;7.22;4.53;;;11.50;95.20;;;;;;1914784;75;21538;-49
2023/05/02 03:01:22;;;;;;;5.87;4.85;;;11.50;95.10;;;;;;1914731;75;21307;-50
2023/05/02 03:03:53;;;;;;;6.90;4.70;;;11.50;95.10;;;;;;1914826;75;21270;-49
2023/05/02 03:06:22;;;;;;;10.30;4.92;;;11.50;95.10;;;;;;1914710;75;21153;-49
2023/05/02 03:08:53;;;;;;;8.08;4.83;;;11.60;95.10;;;;;;1879419;75;21371;-49
2023/05/02 03:11:23;;;;;;;5.75;4.75;;;11.60;95.10;;;;;;1914481;75;21387;-49
2023/05/02 03:13:53;;;;;;;4.22;3.67;;;11.60;94.90;;;;;;1914911;75;21177;-50
2023/05/02 03:16:39;;;;;;;5.10;3.72;;;11.60;94.90;;;;;;1914659;75;21076;-49
2023/05/02 03:19:10;;;;;;;6.75;4.40;;;11.70;95.00;;;;;;1914641;75;21319;-50
2023/05/02 03:21:40;;;;;;;5.08;4.30;;;11.70;95.00;;;;;;1914780;75;21221;-47
2023/05/02 03:24:11;;;;;;;5.45;4.55;;;11.70;95.00;;;;;;1914127;75;21233;-47
2023/05/02 03:26:40;;;;;;;5.97;4.60;;;11.70;95.00;;;;;;1914744;75;21327;-47
2023/05/02 03:29:10;;;;;;;6.22;5.10;;;11.70;95.20;;;;;;1914739;75;21279;-48
2023/05/02 03:31:40;;;;;;;7.05;4.97;;;11.80;94.90;;;;;;1914770;75;21105;-49
2023/05/02 03:34:09;;;;;;;6.67;4.33;;;11.80;94.90;;;;;;1914809;75;21375;-47
2023/05/02 03:36:38;;;;;;;6.95;4.97;;;11.80;95.20;;;;;;1914763;75;21119;-47
2023/05/02 03:39:08;;;;;;;5.97;4.75;;;11.90;94.90;;;;;;1914805;75;21115;-48
2023/05/02 03:41:37;;;;;;;7.30;5.72;;;11.90;94.90;;;;;;1914835;75;21146;-48
2023/05/02 03:44:07;;;;;;;7.53;5.40;;;12.00;94.90;;;;;;1914766;75;21197;-47
2023/05/02 03:46:38;;;;;;;6.45;4.85;;;12.00;94.90;;;;;;1914887;75;21223;-48
2023/05/02 03:49:07;;;;;;;6.53;5.30;;;12.00;94.90;;;;;;1914759;75;21020;-48
2023/05/02 03:51:36;;;;;;;6.65;4.53;;;12.00;94.80;;;;;;1914915;75;21291;-48
2023/05/02 03:54:06;;;;;;;5.85;4.70;;;12.00;94.70;;;;;;1914698;75;21145;-47
2023/05/02 03:56:36;;;;;;;6.55;5.78;;;12.00;94.70;;;;;;1914766;75;21193;-48
2023/05/02 03:59:12;;;;;;;8.58;4.72;;;12.10;94.80;;;;;;1913634;75;21314;-48
2023/05/02 04:01:41;;;;;;;6.40;4.83;;;12.10;94.80;;;;;;1914747;75;21355;-48
2023/05/02 04:04:12;;;;;;;6.20;5.15;;;12.10;94.70;;;;;;1914780;75;21694;-49
2023/05/02 04:06:42;;;;;;;6.25;4.30;;;12.20;94.70;;;;;;1913336;75;21208;-47
2023/05/02 04:09:12;;;;;;;6.05;4.35;;;12.20;94.70;;;;;;1914780;75;21096;-48
2023/05/02 04:11:42;;;;;;;8.73;4.37;;;12.20;94.70;;;;;;1913272;75;21144;-47
2023/05/02 04:14:13;;;;;;;5.10;4.55;;;12.30;94.60;;;;;;1914728;75;21145;-47
2023/05/02 04:16:48;;;;;;;7.75;5.05;;;12.30;94.50;;;;;;1914587;75;21346;-47
2023/05/02 04:19:20;;;;;;;5.90;4.42;;;12.30;94.50;;;;;;1914030;75;21293;-49
2023/05/02 04:21:50;;;;;;;8.98;7.05;;;12.30;94.50;;;;;;1879317;75;21258;-48
2023/05/02 04:24:19;;;;;;;6.72;4.08;;;12.40;94.50;;;;;;1914651;75;21193;-49
2023/05/02 04:26:48;;;;;;;5.53;4.35;;;12.40;94.30;;;;;;1914659;75;20989;-48
2023/05/02 04:29:17;;;;;;;7.28;4.53;;;12.40;94.30;;;;;;1914834;75;21053;-48
2023/05/02 04:31:48;;;;;;;4.85;3.98;;;12.50;94.40;;;;;;1914862;75;21136;-49
2023/05/02 04:34:17;;;;;;;4.60;4.00;;;12.60;94.40;;;;;;1914790;75;21068;-48
2023/05/02 04:36:47;;;;;;;3.87;3.50;;;12.60;94.20;;;;;;1914890;75;21156;-48
2023/05/02 04:39:17;;;;;;;4.30;3.30;;;12.70;94.20;;;;;;1913800;75;21136;-48
2023/05/02 04:41:49;;;;;;;3.42;3.08;;;12.70;94.00;;;;;;1912652;75;21514;-49
2023/05/02 04:44:19;;;;;;;4.58;3.90;;;12.70;94.20;;;;;;1914834;75;21085;-48
2023/05/02 04:46:48;;;;;;;4.92;3.60;;;12.70;94.00;;;;;;1914934;75;21043;-48
2023/05/02 04:49:17;;;;;;;6.75;3.70;;;12.70;93.90;;;;;;1914861;75;21040;-48
2023/05/02 04:51:46;;;;;;;4.10;3.25;;;12.80;94.00;;;;;;1914814;75;21116;-49
2023/05/02 04:54:16;;;;;;;5.45;3.65;;;12.80;93.90;;;;;;1914910;75;21084;-48
2023/05/02 04:56:46;;;;;;;4.20;3.35;;;12.80;93.90;;;;;;1914804;75;21091;-49
2023/05/02 04:59:16;;;;;;;6.37;3.25;;;12.90;93.90;;;;;;1914965;75;21435;-48
2023/05/02 05:01:46;;;;;;;6.78;4.00;;;12.90;93.80;;;;;;1914813;75;21016;-48
2023/05/02 05:04:15;;;;;;;6.80;3.77;;;12.90;93.80;;;;;;1914832;75;21161;-50
2023/05/02 05:06:46;;;;;;;6.70;3.55;;;13.00;93.80;;;;;;1914740;75;21528;-49
2023/05/02 05:09:15;;;;;;;3.33;3.02;;;13.00;93.80;;;;;;1914812;75;21016;-49
2023/05/02 05:11:45;;;;;;;2.75;2.50;;;13.00;93.80;;;;;;1914799;75;21012;-49
2023/05/02 05:14:15;;;;;;;2.83;2.62;;;13.10;93.80;;;;;;1914861;75;21032;-50
2023/05/02 05:16:45;;;;;;;4.12;3.12;;;13.10;93.70;;;;;;1914362;75;21072;-48
2023/05/02 05:19:15;;;;;;;4.42;3.05;;;13.20;93.60;;;;;;1914797;75;21108;-49
2023/05/02 05:21:44;;;;;;;2.95;2.65;;;13.20;93.60;;;;;;1914751;75;21055;-49
2023/05/02 05:24:14;;;;;;;4.15;2.95;;;13.30;93.60;;;;;;1914731;75;21579;-49
2023/05/02 05:26:43;;;;;;;3.77;2.70;;;13.30;93.50;;;;;;1914699;75;20988;-48
2023/05/02 05:29:13;;;;;;;3.20;2.37;;;13.40;93.40;;;;;;1914607;75;21068;-49
2023/05/02 05:31:43;;;;;;;4.70;3.15;;;13.40;93.10;;;;;;1914938;75;21011;-48
2023/05/02 05:34:14;;;;;;;5.45;3.22;;;13.40;93.20;;;;;;1914410;75;21554;-48
2023/05/02 05:36:44;;;;;;;4.42;2.27;;;13.50;93.20;;;;;;1915005;75;21080;-48
2023/05/02 05:39:12;;;;;;;3.35;2.12;;;13.50;92.80;;;;;;1914844;75;21028;-49
2023/05/02 05:41:43;;;;;;;1.82;1.67;;;13.60;92.80;;;;;;1914890;75;21059;-48
2023/05/02 05:44:13;;;;;;;2.20;2.00;;;13.60;92.50;;;;;;1914878;75;21040;-48
2023/05/02 05:46:42;;;;;;;3.30;1.82;;;13.60;92.70;;;;;;1914833;75;21044;-48
2023/05/02 05:49:14;;;;;;;5.97;2.58;;;13.70;92.50;;;;;;1914696;75;21021;-48
2023/05/02 05:51:44;;;;;;;6.75;2.37;;;13.80;92.40;;;;;;1914960;75;21040;-51
2023/05/02 05:54:13;;;;;;;5.67;2.45;;;13.80;92.40;;;;;;1914724;75;21044;-48
2023/05/02 05:56:43;;;;;;;3.80;2.27;;;13.90;92.40;;;;;;1914876;75;21056;-51
2023/05/02 05:59:13;;;;;;;2.98;2.30;;;13.90;92.40;;;;;;1914371;75;21024;-51
2023/05/02 06:01:43;;;;;;;4.25;3.08;;;13.90;92.30;;;;;;1914888;75;21501;-51
2023/05/02 06:04:12;;;;;;;7.05;2.30;;;14.00;92.20;;;;;;1914744;75;21024;-52
2023/05/02 06:06:43;;;;;;;7.62;2.50;;;14.00;92.20;;;;;;1914365;75;21027;-50
2023/05/02 06:09:12;;;;;;;4.37;2.25;;;14.10;92.10;;;;;;1914746;75;21008;-52
2023/05/02 06:11:41;;;;;;;3.80;3.35;;;14.10;91.90;;;;;;1914850;75;21039;-50
2023/05/02 06:14:11;;;;;;;4.83;2.85;;;14.20;92.00;;;;;;1914884;75;21538;-50
2023/05/02 06:16:41;;;;;;;3.58;2.55;;;14.20;92.00;;;;;;1913325;75;21117;-52
2023/05/02 06:19:10;;;;;;;2.58;2.35;;;14.30;91.80;;;;;;1902211;75;21649;-52
2023/05/02 06:21:40;;;;;;;4.08;2.33;;;14.30;91.80;;;;;;1902368;75;21064;-49
2023/05/02 06:24:10;;;;;;;6.60;3.25;;;14.40;91.80;;;;;;1902174;75;21016;-49
2023/05/02 06:26:39;;;;;;;3.10;1.92;;;14.40;91.80;;;;;;1902363;75;21482;-49
2023/05/02 06:29:08;;;;;;;3.62;1.77;;;14.50;91.70;;;;;;1902085;75;21118;-49
2023/05/02 06:31:37;;;;;;;4.35;2.40;;;14.50;91.60;;;;;;1902083;75;21045;-49
2023/05/02 06:34:06;;;;;;;6.33;2.08;;;14.60;91.20;;;;;;1902162;75;21033;-50
2023/05/02 06:36:36;;;;;;;2.75;2.30;;;14.60;91.30;;;;;;1902254;75;21049;-49
2023/05/02 06:39:05;;;;;;;4.50;1.80;;;14.70;91.10;;;;;;1902091;75;20993;-51
2023/05/02 06:41:34;;;;;;;3.30;2.22;;;14.70;91.20;;;;;;1902110;75;21013;-49
2023/05/02 06:44:03;;;;;;;2.30;2.02;;;14.70;91.00;;;;;;1902121;75;21048;-49
2023/05/02 06:46:32;;;;;;;4.00;2.42;;;14.70;90.80;;;;;;1902212;75;21045;-49
2023/05/02 06:49:01;;;;;;;2.92;1.75;;;14.80;90.70;;;;;;1902049;75;21087;-50
2023/05/02 06:51:31;;;;;;;9.65;3.83;;;14.70;90.80;;;;;;1902188;75;21032;-49
2023/05/02 06:53:59;;;;;;;8.05;2.22;;;14.80;90.90;;;;;;1902222;75;21083;-49
2023/05/02 06:56:30;;;;;;;2.40;2.10;;;14.80;90.90;;;;;;1902131;75;21023;-49
2023/05/02 06:58:59;;;;;;;6.05;2.52;;;14.90;90.90;;;;;;1902044;75;21083;-49
2023/05/02 07:01:28;;;;;;;2.45;1.90;;;15.00;90.60;;;;;;1902098;75;21052;-49
2023/05/02 07:03:57;;;;;;;2.37;1.90;;;15.10;90.40;;;;;;1902226;75;21104;-48
2023/05/02 07:06:26;;;;;;;2.02;1.50;;;15.10;90.50;;;;;;1902125;75;21082;-49
2023/05/02 07:08:56;;;;;;;2.70;1.65;;;15.10;90.30;;;;;;1902156;75;21452;-48
2023/05/02 07:11:26;;;;;;;2.92;2.05;;;15.20;90.20;;;;;;1902111;75;21021;-49
2023/05/02 07:13:56;;;;;;;3.85;2.50;;;15.20;90.20;;;;;;1902127;75;21017;-49
2023/05/02 07:16:25;;;;;;;1.75;1.52;;;15.20;90.20;;;;;;1902151;75;21016;-49
2023/05/02 07:18:54;;;;;;;4.28;3.22;;;15.20;90.20;;;;;;1911803;75;21121;-49
2023/05/02 07:21:24;;;;;;;5.97;2.55;;;15.20;90.10;;;;;;1914770;75;21032;-49
2023/05/02 07:23:54;;;;;;;4.53;1.90;;;15.20;90.10;;;;;;1914829;75;21032;-49
2023/05/02 07:26:25;;;;;;;3.35;2.12;;;15.30;90.10;;;;;;1915052;75;21012;-49
2023/05/02 07:28:54;;;;;;;4.10;2.47;;;15.30;90.00;;;;;;1914788;75;21032;-50
2023/05/02 07:31:23;;;;;;;2.52;2.00;;;15.40;90.10;;;;;;1914741;75;21031;-48
2023/05/02 07:33:52;;;;;;;4.22;1.80;;;15.40;89.80;;;;;;1914717;75;21503;-49
2023/05/02 07:36:21;;;;;;;7.85;2.25;;;15.40;89.90;;;;;;1914708;75;21530;-48
2023/05/02 07:38:51;;;;;;;5.97;1.85;;;15.40;90.00;;;;;;1914714;75;21314;-50
2023/05/02 07:41:20;;;;;;;7.22;1.70;;;15.50;89.50;;;;;;1914752;75;21012;-49
2023/05/02 07:43:48;;;;;;;3.83;1.87;;;15.60;89.80;;;;;;1914742;75;21000;-50
2023/05/02 07:46:17;;;;;;;1.52;1.37;;;15.60;89.70;;;;;;1914702;75;21020;-48
2023/05/02 07:48:46;;;;;;;1.85;1.35;;;15.70;89.40;;;;;;1914637;75;21083;-49
2023/05/02 07:51:19;;;;;;;5.70;2.00;;;15.80;89.20;;;;;;1914806;75;20992;-49
2023/05/02 07:53:46;;;;;;;5.55;2.00;;;15.90;88.10;;;;;;1914699;75;21001;-49
2023/05/02 07:56:16;;;;;;;1.77;1.40;;;15.90;88.60;;;;;;1914977;75;21024;-49
2023/05/02 07:58:45;;;;;;;4.45;1.72;;;16.00;88.90;;;;;;1914770;75;21012;-49
2023/05/02 08:01:17;;;;;;;3.37;2.10;;;16.10;88.70;;;;;;1914907;75;21078;-49
2023/05/02 08:03:47;;;;;;;6.28;2.65;;;16.20;88.00;;;;;;1914828;75;21086;-49
2023/05/02 08:06:16;;;;;;;3.30;1.98;;;16.40;87.70;;;;;;1914856;75;21117;-49
2023/05/02 08:08:45;;;;;;;5.03;1.55;;;16.40;87.10;;;;;;1914688;75;21483;-49
2023/05/02 08:11:14;;;;;;;2.77;1.65;;;16.50;86.20;;;;;;1914702;75;21099;-49
2023/05/02 08:13:43;;;;;;;6.78;1.80;;;16.50;86.50;;;;;;1914474;75;21082;-47
2023/05/02 08:16:12;;;;;;;6.35;2.30;;;16.50;86.20;;;;;;1914752;75;20991;-47
2023/05/02 08:18:41;;;;;;;2.42;1.47;;;16.50;86.30;;;;;;1918548;74;21094;-47
2023/05/02 08:21:10;;;;;;;5.47;2.27;;;16.50;86.40;;;;;;1924578;74;20983;-47
2023/05/02 08:23:41;;;;;;;6.22;1.65;;;16.50;86.20;;;;;;1924601;74;21035;-47
2023/05/02 08:26:10;;;;;;;4.08;2.02;;;16.40;86.20;;;;;;1924609;74;20994;-46
2023/05/02 08:28:39;;;;;;;3.35;2.05;;;16.40;86.10;;;;;;1924493;74;21151;-47
2023/05/02 08:31:08;;;;;;;2.65;1.98;;;16.40;86.10;;;;;;1924570;74;21007;-46
2023/05/02 08:33:38;;;;;;;6.72;2.77;;;16.40;85.50;;;;;;1924748;73;21085;-46
2023/05/02 08:36:18;;;;;;;7.42;1.98;;;16.30;85.80;;;;;;1929042;73;21006;-47
2023/05/02 08:38:48;;;;;;;9.88;1.98;;;16.30;86.00;;;;;;1929076;73;21019;-47
2023/05/02 08:41:18;;;;;;;1.72;0.90;;;16.30;85.60;;;;;;1933829;73;21016;-46
2023/05/02 08:43:47;;;;;;;5.50;1.55;;;16.30;85.00;;;;;;1929422;73;21011;-47
2023/05/02 08:46:17;;;;;;;4.65;1.40;;;16.20;84.90;;;;;;1928956;73;20995;-47
2023/05/02 08:48:49;;;;;;;1.65;1.37;;;16.10;84.60;;;;;;1924635;74;21018;-48
2023/05/02 08:51:18;;;;;;;6.03;1.22;;;16.00;85.10;;;;;;1924846;74;21064;-47
2023/05/02 08:53:49;;;;;;;6.55;1.00;;;15.90;85.20;;;;;;1924768;74;21062;-47
2023/05/02 08:56:18;;;;;;;2.92;1.27;;;15.90;85.80;;;;;;1924828;74;21002;-47
2023/05/02 08:58:47;;;;;;;6.80;2.47;;;15.80;86.20;;;;;;1924712;74;21003;-47
2023/05/02 09:01:18;;;;;;;2.05;1.00;;;15.80;86.70;;;;;;1924765;74;21031;-48
2023/05/02 09:03:48;;;;;;;2.47;1.32;;;15.80;86.70;;;;;;1924692;74;21010;-47
2023/05/02 09:06:19;;;;;;;5.42;1.30;;;15.80;87.00;;;;;;1924779;74;21022;-47
2023/05/02 09:08:51;;;;;;;2.00;1.80;;;15.80;87.40;;;;;;1924761;74;21128;-47
2023/05/02 09:11:21;;;;;;;3.87;1.37;;;15.80;87.50;;;;;;1924960;74;21093;-47
2023/05/02 09:13:51;;;;;;;2.87;1.07;;;15.80;87.80;;;;;;1924894;74;20995;-47
2023/05/02 09:16:22;;;;;;;1.20;0.85;;;15.80;88.00;;;;;;1924789;74;21034;-47
2023/05/02 09:18:54;;;;;;;3.02;0.80;;;15.90;88.20;;;;;;1924819;74;21116;-47
2023/05/02 09:21:26;;;;;;;1.07;1.00;;;15.90;88.80;;;;;;1924742;74;21153;-47
2023/05/02 09:23:59;;;;;;;1.90;0.80;;;15.90;89.20;;;;;;1922462;74;21089;-48
2023/05/02 09:26:32;;;;;;;3.27;1.15;;;15.90;89.20;;;;;;1924931;74;21008;-47
2023/05/02 09:29:03;;;;;;;2.02;1.02;;;15.90;89.10;;;;;;1925034;74;21032;-47
2023/05/02 09:31:40;;;;;;;1.75;0.98;;;16.00;89.30;;;;;;1924812;74;21125;-47
2023/05/02 09:34:16;;;;;;;3.08;1.07;;;16.00;89.30;;;;;;1923195;74;21029;-48
2023/05/02 09:36:50;;;;;;;1.57;1.00;;;16.00;89.00;;;;;;1925171;74;21011;-47
2023/05/02 09:39:24;;;;;;;1.45;0.95;;;16.00;89.50;;;;;;1924752;74;21047;-47
2023/05/02 09:41:53;;;;;;;1.22;0.80;;;16.00;89.60;;;;;;1924857;74;21052;-47
2023/05/02 09:44:24;;;;;;;2.15;1.00;;;16.00;90.00;;;;;;1924779;74;21055;-47
2023/05/02 09:47:01;;;;;;;1.32;0.95;;;16.00;90.00;;;;;;1924840;74;21008;-47
2023/05/02 09:49:40;;;;;;;1.17;0.95;;;16.10;90.10;;;;;;1923400;74;21035;-47
2023/05/02 09:52:14;;;;;;;3.62;1.50;;;16.10;90.10;;;;;;1923839;74;21052;-47
2023/05/02 09:54:45;;;;;;;1.57;0.93;;;16.20;90.30;;;;;;1934084;73;21018;-48
2023/05/02 09:57:14;;;;;;;3.10;1.02;;;16.30;90.30;;;;;;1931513;73;21550;-47
2023/05/02 09:59:55;;;;;;;3.10;1.20;;;16.50;90.30;;;;;;1924900;73;21114;-47
2023/05/02 10:02:25;;;;;;;2.20;1.20;;;16.60;89.60;;;;;;1924834;73;21138;-47
2023/05/02 10:04:57;;;;;;;5.05;1.25;;;16.70;89.00;;;;;;1928101;73;21093;-47
2023/05/02 10:07:27;;;;;;;4.53;2.20;;;16.70;88.90;;;;;;1936734;73;20986;-47
2023/05/02 10:09:58;;;;;;;21.80;3.00;;;16.80;88.80;;;;;;1941990;73;20996;-47
2023/05/02 10:12:29;;;;;;;2.40;1.52;;;16.80;87.90;;;;;;1931712;73;21034;-47
2023/05/02 10:15:00;;;;;;;2.15;1.57;;;16.90;87.30;;;;;;1935396;73;20970;-47
2023/05/02 10:17:35;;;;;;;4.17;1.57;;;16.90;87.20;;;;;;1958757;73;21504;-46
2023/05/02 10:20:07;;;;;;;2.90;1.20;;;17.00;86.70;;;;;;1932945;73;21054;-46
2023/05/02 10:22:36;;;;;;;1.60;1.10;;;17.00;86.00;;;;;;1916104;74;21588;-47
2023/05/02 10:25:06;;;;;;;2.65;0.93;;;17.10;85.70;;;;;;1928523;74;20988;-46
2023/05/02 10:27:36;;;;;;;1.35;1.10;;;17.10;84.90;;;;;;1929642;74;21015;-46
2023/05/02 10:30:07;;;;;;;4.72;1.82;;;17.10;85.60;;;;;;1901230;74;20996;-46
2023/05/02 10:32:37;;;;;;;5.42;2.05;;;17.20;85.60;;;;;;1926558;74;21024;-46
2023/05/02 10:35:07;;;;;;;2.10;1.60;;;17.30;85.40;;;;;;1919445;74;21094;-46
2023/05/02 10:37:38;;;;;;;1.50;1.20;;;17.30;85.10;;;;;;1916070;74;21063;-46
2023/05/02 10:40:12;;;;;;;1.85;1.47;;;17.40;84.60;;;;;;1932207;74;21011;-46
2023/05/02 10:42:44;;;;;;;4.80;1.75;;;17.40;84.30;;;;;;1925445;74;21011;-46
2023/05/02 10:45:34;;;;;;;1.85;1.47;;;17.30;83.60;;;;;;1925570;74;21043;-46
2023/05/02 10:48:17;;;;;;;4.83;1.92;;;17.30;83.50;;;;;;1927529;73;21077;-46
2023/05/02 10:50:51;;;;;;;3.45;1.67;;;17.20;83.50;;;;;;1907821;74;21083;-47
2023/05/02 10:53:25;;;;;;;4.17;1.50;;;17.20;82.80;;;;;;1918146;74;21023;-46
2023/05/02 10:56:14;;;;;;;4.62;1.82;;;17.10;82.20;;;;;;1928825;74;21043;-46
2023/05/02 10:58:45;;;;;;;3.90;1.92;;;17.10;81.70;;;;;;1918304;74;21030;-46
2023/05/02 11:01:33;;;;;;;2.27;1.30;;;17.10;82.00;;;;;;1928734;74;21023;-47
2023/05/02 11:04:03;;;;;;;3.33;1.70;;;17.00;81.70;;;;;;1918652;75;21027;-48
2023/05/02 11:06:34;;;;;;;3.30;1.42;;;16.90;81.30;;;;;;1917798;75;21091;-48
2023/05/02 11:09:24;;;;;;;5.08;1.70;;;16.90;81.50;;;;;;1912846;75;21522;-48
2023/05/02 11:11:53;;;;;;;6.90;2.20;;;16.80;81.40;;;;;;1917578;75;21016;-51
2023/05/02 11:14:40;;;;;;;2.27;1.42;;;16.80;81.90;;;;;;1917608;75;21129;-48
2023/05/02 11:17:10;;;;;;;4.80;2.45;;;16.70;81.50;;;;;;1917613;75;21044;-48
2023/05/02 11:19:46;;;;;;;5.83;1.57;;;16.60;81.90;;;;;;1916384;74;21059;-48
2023/05/02 11:22:22;;;;;;;2.15;1.45;;;16.60;82.00;;;;;;1881339;76;21048;-48
2023/05/02 11:24:51;;;;;;;4.53;1.55;;;16.60;82.50;;;;;;1881418;76;21098;-48
2023/05/02 11:27:40;;;;;;;4.67;1.32;;;16.70;81.90;;;;;;1881493;76;21616;-48
2023/05/02 11:30:08;;;;;;;8.50;1.70;;;16.70;81.90;;;;;;1879656;76;21036;-48
2023/05/02 11:32:50;;;;;;;7.08;2.27;;;16.70;81.90;;;;;;1881257;76;21111;-48
2023/05/02 11:35:22;;;;;;;3.67;1.85;;;16.80;81.70;;;;;;1881880;76;21066;-47
2023/05/02 11:37:55;;;;;;;5.20;1.62;;;16.70;81.70;;;;;;1881595;76;21549;-48
2023/05/02 11:40:26;;;;;;;7.28;1.87;;;16.70;81.70;;;;;;1881774;75;21114;-48
2023/05/02 11:42:56;;;;;;;8.95;3.15;;;16.70;82.60;;;;;;1882350;76;21090;-48
2023/05/02 11:45:44;;;;;;;4.17;1.77;;;16.60;81.90;;;;;;1882335;76;21032;-48
2023/05/02 11:48:15;;;;;;;10.65;5.08;;;16.70;82.40;;;;;;1882267;76;21129;-48
2023/05/02 11:50:52;;;;;;;6.22;1.90;;;16.70;82.30;;;;;;1882312;76;21086;-48
2023/05/02 11:53:26;;;;;;;5.22;1.80;;;16.70;82.00;;;;;;1882243;76;21012;-48
2023/05/02 11:55:57;;;;;;;5.15;1.75;;;16.70;81.90;;;;;;1882382;76;21024;-48
2023/05/02 11:58:32;;;;;;;8.85;4.12;;;16.70;81.50;;;;;;1882155;76;21043;-48
2023/05/02 12:01:15;;;;;;;9.03;4.30;;;16.60;81.70;;;;;;1882391;76;21113;-47
2023/05/02 12:03:44;;;;;;;14.40;7.28;;;16.70;81.50;;;;;;1882300;76;21036;-47
2023/05/02 12:06:18;;;;;;;10.72;3.90;;;16.60;81.60;;;;;;1882401;76;21067;-48
2023/05/02 12:08:47;;;;;;;3.22;2.05;;;16.50;81.50;;;;;;1882494;76;21032;-48
2023/05/02 12:11:17;;;;;;;4.60;1.92;;;16.40;80.70;;;;;;1882331;76;21012;-49
2023/05/02 12:13:50;;;;;;;2.52;2.00;;;16.30;81.20;;;;;;1882228;76;21016;-48
2023/05/02 12:16:19;;;;;;;7.58;2.12;;;16.30;81.60;;;;;;1882308;76;21064;-49
2023/05/02 12:18:49;;;;;;;4.67;2.08;;;16.30;81.50;;;;;;1882278;75;21060;-48
2023/05/02 12:21:18;;;;;;;5.25;2.17;;;16.20;81.60;;;;;;1891516;75;21072;-51
2023/05/02 12:23:47;;;;;;;4.15;2.02;;;16.10;81.90;;;;;;1902153;75;21024;-49
2023/05/02 12:26:23;;;;;;;2.90;1.77;;;16.10;82.20;;;;;;1902105;75;21009;-48
2023/05/02 12:28:57;;;;;;;4.12;1.92;;;16.10;82.10;;;;;;1902045;75;21016;-48
2023/05/02 12:31:23;;;;;;;3.80;2.50;;;16.10;81.90;;;;;;1900801;75;21138;-49
2023/05/02 12:33:56;;;;;;;6.08;2.20;;;16.10;82.10;;;;;;1902081;75;21032;-48
2023/05/02 12:36:24;;;;;;;3.62;1.37;;;16.10;82.10;;;;;;1902077;75;21048;-48
2023/05/02 12:38:57;;;;;;;3.70;1.98;;;16.00;82.10;;;;;;1902165;75;21091;-48
2023/05/02 12:41:36;;;;;;;2.83;1.67;;;16.00;82.20;;;;;;1901971;75;21549;-48
2023/05/02 12:44:10;;;;;;;2.35;1.50;;;16.00;82.30;;;;;;1902061;75;21103;-48
2023/05/02 12:46:36;;;;;;;4.85;1.42;;;16.00;82.20;;;;;;1901060;75;21056;-48
2023/05/02 12:49:16;;;;;;;3.65;1.72;;;16.00;81.90;;;;;;1901992;75;21024;-48
2023/05/02 12:51:40;;;;;;;3.15;1.72;;;15.90;82.20;;;;;;1900439;75;21068;-49
2023/05/02 12:54:12;;;;;;;3.55;1.80;;;15.90;82.20;;;;;;1902119;75;21005;-48
2023/05/02 12:56:42;;;;;;;2.27;1.50;;;15.80;81.90;;;;;;1900050;75;21435;-49
2023/05/02 12:59:28;;;;;;;6.67;1.85;;;15.80;82.10;;;;;;1902037;75;21005;-49
2023/05/02 13:01:58;;;;;;;2.37;1.70;;;15.80;82.10;;;;;;1902033;75;21094;-49
2023/05/02 13:04:40;;;;;;;2.47;1.55;;;15.70;82.30;;;;;;1902022;75;21008;-49
2023/05/02 13:07:10;;;;;;;5.83;2.08;;;15.70;82.40;;;;;;1901987;75;21057;-48